Terminal Aerodrome Forecast
Issued by NWS

Home | Current Version | Previous Version | Text Only | Print | Product List | Glossary On
Versions: 1 2 3 4 5 6 7 8 9 10 11 12 13 14 15
000
FTUS43 KAPX 271120
TAFMBL
TAF
KMBL 271120Z 2712/2812 00000KT P6SM FEW200
      TEMPO 2712/2713 3SM BR
     FM271400 00000KT P6SM FEW200
     FM271800 28007KT P6SM SCT140
     FM272300 19004KT P6SM FEW200
     FM280300 13004KT P6SM SCT250
     FM280600 12004KT P6SM OVC090=

USA.gov is the U.S. government's official web portal to all federal, state and local government web resources and services.